createdAt,value
2019-01-22T00:04:10.214Z,88.50
2019-01-22T00:09:12.741Z,89.20
2019-01-22T00:14:15.356Z,85.90
2019-01-22T00:19:17.901Z,82.43
2019-01-22T00:24:20.409Z,80.43
2019-01-22T00:29:23.322Z,74.73
2019-01-22T00:34:25.848Z,69.13
2019-01-22T00:39:28.360Z,71.50
2019-01-22T00:44:30.868Z,64.97
2019-01-22T00:49:33.525Z,64.17
2019-01-22T00:54:36.428Z,63.17
2019-01-22T00:59:39.332Z,70.03
2019-01-22T01:04:41.864Z,69.33
2019-01-22T01:09:44.390Z,63.73
2019-01-22T01:14:46.892Z,65.00
2019-01-22T01:19:49.422Z,64.13
2019-01-22T01:24:52.311Z,67.60
2019-01-22T01:29:54.768Z,71.47
2019-01-22T01:34:57.501Z,73.40
2019-01-22T01:40:00.586Z,74.23
2019-01-22T01:45:04.718Z,67.47
2019-01-22T01:50:10.401Z,63.50
2019-01-22T01:55:14.961Z,60.10
2019-01-22T02:00:19.829Z,64.10
2019-01-22T02:05:22.344Z,60.90
2019-01-22T02:10:26.191Z,57.43
2019-01-22T02:15:36.006Z,56.53
2019-01-22T02:21:24.457Z,56.27
2019-01-22T02:27:13.541Z,53.87
2019-01-22T02:33:06.023Z,55.40
2019-01-22T02:38:29.516Z,51.97
2019-01-22T02:44:13.033Z,50.70
2019-01-22T02:50:12.711Z,52.63
2019-01-22T02:55:32.585Z,53.00
2019-01-22T03:01:20.338Z,51.40
2019-01-22T03:07:08.052Z,51.60
2019-01-22T03:13:00.806Z,51.07
2019-01-22T03:18:33.134Z,50.47
2019-01-22T03:24:05.773Z,49.60
2019-01-22T03:29:45.839Z,52.47
2019-01-22T03:35:03.808Z,52.03
2019-01-22T03:40:25.537Z,48.07
2019-01-22T03:46:02.145Z,49.80
2019-01-22T03:51:58.369Z,48.37
2019-01-22T03:57:17.062Z,46.43
2019-01-22T04:02:20.592Z,46.70
2019-01-22T04:07:23.167Z,47.60
2019-01-22T04:12:25.869Z,47.67
2019-01-22T04:17:28.417Z,50.47
2019-01-22T04:22:37.101Z,47.40
2019-01-22T04:28:16.784Z,48.77
2019-01-22T04:34:08.106Z,49.20
2019-01-22T04:39:58.572Z,48.30
2019-01-22T04:45:44.120Z,48.63
2019-01-22T04:51:31.588Z,48.07
2019-01-22T04:56:59.673Z,45.80
2019-01-22T05:03:08.417Z,49.90
2019-01-22T05:08:44.813Z,45.80
2019-01-22T05:14:04.214Z,51.33
2019-01-22T05:19:56.885Z,47.77
2019-01-22T05:25:20.354Z,45.20
2019-01-22T05:30:37.993Z,48.03
2019-01-22T05:36:06.109Z,46.67
2019-01-22T05:41:39.202Z,49.87
2019-01-22T05:47:17.029Z,49.43
2019-01-22T05:52:51.981Z,45.93
2019-01-22T05:58:22.717Z,48.80
2019-01-22T06:03:53.924Z,49.00
2019-01-22T06:09:39.525Z,47.80
2019-01-22T06:15:03.593Z,46.77
2019-01-22T06:20:50.387Z,45.10
2019-01-22T06:26:16.692Z,44.63
2019-01-22T06:31:46.395Z,45.90
2019-01-22T06:37:10.138Z,45.07
2019-01-22T06:42:48.143Z,45.23
2019-01-22T06:48:24.728Z,46.13
2019-01-22T06:53:54.991Z,45.47
2019-01-22T06:59:26.908Z,44.43
2019-01-22T07:04:58.115Z,45.30
2019-01-22T07:10:39.434Z,44.00
2019-01-22T07:16:23.364Z,42.40
2019-01-22T07:22:00.228Z,45.10
2019-01-22T07:27:34.151Z,42.60
2019-01-22T07:33:36.756Z,44.70
2019-01-22T07:39:11.997Z,44.53
2019-01-22T07:44:39.770Z,42.67
2019-01-22T07:50:20.406Z,40.73
2019-01-22T07:55:59.549Z,42.53
2019-01-22T08:01:34.619Z,40.37
2019-01-22T08:07:21.417Z,40.80
2019-01-22T08:13:16.445Z,40.70
2019-01-22T08:18:55.936Z,39.27
2019-01-22T08:24:48.042Z,37.87
2019-01-22T08:30:23.483Z,39.17
2019-01-22T08:36:07.826Z,39.00
2019-01-22T08:42:01.022Z,37.47
2019-01-22T08:47:59.688Z,37.73
2019-01-22T08:53:21.868Z,37.20
2019-01-22T08:58:50.247Z,39.27
2019-01-22T09:04:42.281Z,36.77
2019-01-22T09:10:26.716Z,37.23
2019-01-22T09:16:01.324Z,35.03
2019-01-22T09:21:34.604Z,35.53
2019-01-22T09:27:04.797Z,33.77
2019-01-22T09:32:43.015Z,33.77
2019-01-22T09:37:51.139Z,30.83
2019-01-22T09:42:53.686Z,31.67
2019-01-22T09:47:56.434Z,32.27
2019-01-22T09:52:58.965Z,26.57
2019-01-22T09:58:01.498Z,26.27
2019-01-22T10:03:05.969Z,26.37
2019-01-22T10:08:08.425Z,28.13
2019-01-22T10:13:11.480Z,25.87
2019-01-22T10:18:14.081Z,26.77
2019-01-22T10:23:18.201Z,26.67
2019-01-22T10:28:20.753Z,25.67
2019-01-22T10:33:23.304Z,25.73
2019-01-22T10:38:25.977Z,25.90
2019-01-22T10:43:28.575Z,25.33
2019-01-22T10:48:33.013Z,24.33
2019-01-22T10:53:35.559Z,24.13
2019-01-22T10:58:38.079Z,25.30
2019-01-22T11:03:40.634Z,24.10
2019-01-22T11:08:45.059Z,24.17
2019-01-22T11:13:47.577Z,22.83
2019-01-22T11:18:50.087Z,23.13
2019-01-22T11:23:52.610Z,21.30
2019-01-22T11:28:55.129Z,20.03
2019-01-22T11:33:57.906Z,20.73
2019-01-22T11:39:00.508Z,20.40
2019-01-22T11:44:04.849Z,19.00
2019-01-22T11:49:07.542Z,20.87
2019-01-22T11:54:10.446Z,19.33
2019-01-22T11:59:13.016Z,20.27
2019-01-22T12:04:15.731Z,20.90
2019-01-22T12:09:18.359Z,20.20
2019-01-22T12:14:20.884Z,20.13
2019-01-22T12:19:23.401Z,19.47
2019-01-22T12:24:25.910Z,19.60
2019-01-22T12:29:28.424Z,21.23
2019-01-22T12:34:30.933Z,23.47
2019-01-22T12:39:33.482Z,23.60
2019-01-22T12:44:36.045Z,24.63
2019-01-22T12:49:38.594Z,24.97
2019-01-22T12:54:41.292Z,26.80
2019-01-22T12:59:43.845Z,28.73
2019-01-22T13:04:46.407Z,26.17
2019-01-22T13:09:48.913Z,25.13
2019-01-22T13:14:51.421Z,25.87
2019-01-22T13:19:53.936Z,27.67
2019-01-22T13:24:56.473Z,27.27
2019-01-22T13:30:01.463Z,26.93
2019-01-22T13:35:04.002Z,30.23
2019-01-22T13:40:09.577Z,29.07
2019-01-22T13:45:15.480Z,32.23
2019-01-22T13:50:18.865Z,29.03
2019-01-22T13:55:33.460Z,26.47
2019-01-22T14:00:36.065Z,26.47
2019-01-22T14:05:38.880Z,21.07
2019-01-22T14:10:41.394Z,19.60
2019-01-22T14:15:43.944Z,22.87
2019-01-22T14:20:46.526Z,20.10
2019-01-22T14:25:49.085Z,18.33
2019-01-22T14:30:51.724Z,17.27
2019-01-22T14:35:54.245Z,17.00
2019-01-22T14:40:58.897Z,19.60
2019-01-22T14:46:01.441Z,18.20
2019-01-22T14:51:04.773Z,16.90
2019-01-22T14:56:07.286Z,16.60
2019-01-22T15:01:09.814Z,18.27
2019-01-22T15:06:12.341Z,19.13
2019-01-22T15:11:15.034Z,18.40
2019-01-22T15:16:18.373Z,19.03
2019-01-22T15:21:20.937Z,19.37
2019-01-22T15:26:23.493Z,17.87
2019-01-22T15:31:26.024Z,17.00
2019-01-22T15:36:28.542Z,18.00
2019-01-22T15:41:31.053Z,19.30
2019-01-22T15:46:33.607Z,18.90
2019-01-22T15:51:36.127Z,19.20
2019-01-22T15:56:38.658Z,18.63
2019-01-22T16:01:41.177Z,20.10
2019-01-22T16:06:43.684Z,19.33
2019-01-22T16:11:46.492Z,18.23
2019-01-22T16:16:49.024Z,19.13
2019-01-22T16:21:51.538Z,19.97
2019-01-22T16:26:54.043Z,18.03
2019-01-22T16:31:56.552Z,20.03
2019-01-22T16:36:59.060Z,19.67
2019-01-22T16:42:01.632Z,20.50
2019-01-22T16:47:04.160Z,18.77
2019-01-22T16:52:06.667Z,17.60
2019-01-22T16:57:09.179Z,17.67
2019-01-22T17:02:11.727Z,19.67
2019-01-22T17:07:14.275Z,17.80
2019-01-22T17:12:16.791Z,19.07
2019-01-22T17:17:20.387Z,18.87
2019-01-22T17:22:22.904Z,17.73
2019-01-22T17:27:25.455Z,21.07
2019-01-22T17:32:56.674Z,19.90
2019-01-22T17:37:59.179Z,26.17
2019-01-22T17:43:01.672Z,20.27
2019-01-22T17:48:05.296Z,19.77
2019-01-22T17:53:07.843Z,18.70
2019-01-22T17:58:10.497Z,18.80
2019-01-22T18:03:12.913Z,20.90
2019-01-22T18:08:15.438Z,22.27
2019-01-22T18:13:17.953Z,22.97
2019-01-22T18:18:20.471Z,23.47
2019-01-22T18:23:23.030Z,24.00
2019-01-22T18:28:25.740Z,24.77
2019-01-22T18:33:28.267Z,26.07
2019-01-22T18:38:30.798Z,26.83
2019-01-22T18:43:33.324Z,25.37
2019-01-22T18:48:35.864Z,25.67
2019-01-22T18:53:38.440Z,24.63
2019-01-22T18:58:40.895Z,24.97
2019-01-22T19:03:43.417Z,24.93
2019-01-22T19:08:45.927Z,24.90
2019-01-22T19:14:09.815Z,26.27
2019-01-22T19:19:12.376Z,24.13
2019-01-22T19:24:14.896Z,27.50
2019-01-22T19:29:17.416Z,25.13
2019-01-22T19:34:19.920Z,25.90
2019-01-22T19:39:22.443Z,28.40
2019-01-22T19:44:24.996Z,28.23
2019-01-22T19:49:27.512Z,28.47
2019-01-22T19:54:30.028Z,29.93
2019-01-22T19:59:32.684Z,29.37
2019-01-22T20:04:35.225Z,29.03
2019-01-22T20:09:37.788Z,28.97
2019-01-22T20:14:40.310Z,31.50
2019-01-22T20:19:42.819Z,30.70
2019-01-22T20:24:45.385Z,30.03
2019-01-22T20:29:48.037Z,30.27
2019-01-22T20:34:50.544Z,30.73
2019-01-22T20:39:53.087Z,30.17
2019-01-22T20:44:55.607Z,30.87
2019-01-22T20:49:58.113Z,29.20
2019-01-22T20:55:00.623Z,27.97
2019-01-22T21:00:06.508Z,31.07
2019-01-22T21:05:11.015Z,30.00
2019-01-22T21:10:24.663Z,29.20
2019-01-22T21:15:27.598Z,31.77
2019-01-22T21:20:30.099Z,31.60
2019-01-22T21:25:32.608Z,33.40
2019-01-22T21:30:36.688Z,33.57
2019-01-22T21:35:39.182Z,33.73
2019-01-22T21:40:41.814Z,33.20
2019-01-22T21:45:44.339Z,31.50
2019-01-22T21:50:46.996Z,31.90
2019-01-22T21:55:49.494Z,33.17
2019-01-22T22:00:52.209Z,33.53
2019-01-22T22:05:54.708Z,34.10
2019-01-22T22:11:00.827Z,34.30
2019-01-22T22:16:03.330Z,33.33
2019-01-22T22:21:07.745Z,34.87
2019-01-22T22:26:10.253Z,37.80
2019-01-22T22:31:12.774Z,39.83
2019-01-22T22:36:15.754Z,40.40
2019-01-22T22:41:18.255Z,37.90
2019-01-22T22:46:20.796Z,39.77
2019-01-22T22:51:23.303Z,40.63
2019-01-22T22:56:43.238Z,39.93
2019-01-22T23:01:45.744Z,42.37
2019-01-22T23:06:48.268Z,41.20
2019-01-22T23:11:50.809Z,43.20
2019-01-22T23:16:57.339Z,43.53
2019-01-22T23:21:59.844Z,43.20
2019-01-22T23:27:03.541Z,41.37
2019-01-22T23:32:06.064Z,42.63
2019-01-22T23:37:08.586Z,41.27
2019-01-22T23:42:11.132Z,41.70
2019-01-22T23:47:13.705Z,42.73
2019-01-22T23:52:16.212Z,42.63
2019-01-22T23:57:18.728Z,43.63
